Monday, October 23, 2017, 1:22 PM EDT
Back to Local

KILG, Wilmington New Castle Co

Location: New Castle, DE, United States Lat: 39.667
Local Time: 1:22 PM EDT (17:22 GMT) Lon: -75.6
Time Zone: US/Eastern Elev: 78 ft

Show me the last for .
Show Decoded

2017-10-23 12:51 METAR KILG 231651Z 16013KT 10SM BKN043 BKN050 BKN065 23/19 A3017 RMK AO2 SLP217
                 T02280189 =
2017-10-23 11:51 METAR KILG 231551Z 16010G17KT 10SM SCT033 BKN049 BKN065 23/18 A3020 RMK AO2
                 SLP227 T02280178 =
2017-10-23 10:59 METAR KILG 231459Z 15010KT 10SM FEW011 BKN049 OVC060 22/18 A3023 RMK AO2
                 T02220183 =
2017-10-23 10:51 METAR KILG 231451Z 16007KT 10SM FEW011 BKN018 OVC060 22/18 A3023 RMK AO2 SLP237
                 T02170183 56011 =
2017-10-23 10:49 METAR KILG 231449Z 15007KT 10SM FEW011 BKN018 OVC060 21/18 A3023 RMK AO2 =
2017-10-23 10:11 METAR KILG 231411Z 15004KT 10SM FEW008 SCT040 OVC050 21/19 A3024 RMK AO2
                 T02060189 =
2017-10-23 09:51 METAR KILG 231351Z 13005KT 10SM BKN008 OVC037 19/18 A3026 RMK AO2 CIG 006V012
                 SLP245 T01940178 =
2017-10-23 08:51 METAR KILG 231251Z 12007KT 6SM BR BKN007 BKN055 18/18 A3027 RMK AO2 SLP248
                 T01830183 =
2017-10-23 08:42 METAR KILG 231242Z 12007KT 4SM BR BKN007 BKN055 18/17 A3027 RMK AO2 T01780172 =
2017-10-23 08:24 METAR KILG 231224Z 10004KT 1/2SM R01/P6000FT FG SCT003 SCT045 BKN055 17/17 A3027
                 RMK AO2 T01720172 $ =
2017-10-23 07:51 METAR KILG 231151Z 10003KT 1/2SM R01/4500VP6000FT FG BKN002 OVC005 17/17 A3027
                 RMK AO2 SLP250 T01720172 10172 20156 56007 $ =
2017-10-23 07:07 METAR KILG 231107Z 08004KT 1/2SM R01/P6000FT FG BKN002 OVC005 17/17 A3027 RMK
                 AO2 T01720172 $ =
2017-10-23 06:52 METAR KILG 231052Z 08004KT 1SM R01/P6000FT BR BKN002 OVC007 17/17 A3027 RMK AO2
                 T01720172 $ =
2017-10-23 06:51 METAR KILG 231051Z 08003KT 1SM R01/P6000FT BR BKN002 OVC007 17/17 A3027 RMK AO2
                 SLP250 T01720172 $ =
2017-10-23 06:40 METAR KILG 231040Z 09003KT 1SM R01/P6000FT BR BKN002 OVC007 17/17 A3028 RMK AO2
                 T01720172 $ =
2017-10-23 06:22 METAR KILG 231022Z 07003KT 1/2SM R01/5000VP6000FT FG BKN002 OVC009 17/17 A3028
                 RMK AO2 T01720172 $ =
2017-10-23 06:03 METAR KILG 231003Z AUTO 08004KT 1/2SM R01/2800V3000FT FG VV002 17/17 A3028 RMK
                 AO2 T01720172 $ =
2017-10-23 05:51 METAR KILG 230951Z AUTO 08004KT 1/4SM R01/2200V2400FT FG VV002 17/17 A3028 RMK
                 AO2 SLP253 T01720172 $ =
2017-10-23 05:44 METAR KILG 230944Z AUTO 09004KT 1/4SM R01/2200V2400FT FG VV002 17/17 A3028 RMK
                 AO2 T01720172 $ =
2017-10-23 05:26 METAR KILG 230926Z AUTO 08005KT 1/2SM R01/2600V6000FT FG VV002 17/17 A3028 RMK
                 AO2 T01720172 $ =
2017-10-23 05:12 METAR KILG 230912Z AUTO 06004KT 1 1/2SM R01/5500VP6000FT BR OVC002 17/17 A3028
                 RMK AO2 T01720172 $ =
2017-10-23 05:02 METAR KILG 230902Z AUTO 07003KT 1/2SM R01/5000VP6000FT FG VV002 17/17 A3029 RMK
                 AO2 T01670167 $ =
2017-10-23 04:51 METAR KILG 230851Z AUTO 03003KT 1/4SM R01/2400V4000FT FG VV002 17/17 A3029 RMK
                 AO2 SLP257 T01670167 58010 $ =
2017-10-23 04:32 METAR KILG 230832Z AUTO 00000KT 1/4SM R01/2000V2600FT FG VV002 17/17 A3029 RMK
                 AO2 T01670167 $ =
2017-10-23 03:51 METAR KILG 230751Z AUTO 00000KT 1/4SM R01/1800V2000FT FG VV002 17/17 A3030 RMK
                 AO2 SLP259 T01670167 $ =
2017-10-23 03:12 METAR KILG 230712Z AUTO 03003KT 1/4SM R01/1400V2000FT FG VV002 16/16 A3031 RMK
                 AO2 T01560156 $ =
2017-10-23 02:59 METAR KILG 230659Z AUTO 02003KT 1/2SM R01/2000V2600FT FG VV002 16/16 A3032 RMK
                 AO2 T01610156 $ =
2017-10-23 02:51 METAR KILG 230651Z AUTO 02003KT 1 1/4SM R01/2200VP6000FT BR OVC002 16/16 A3032
                 RMK AO2 SLP266 T01610156 $ =
2017-10-23 01:51 METAR KILG 230551Z AUTO 01003KT 10SM OVC004 16/15 A3032 RMK AO2 SLP267 T01610150
                 10172 20139 58012 $ =
2017-10-23 01:13 METAR KILG 230513Z AUTO 06003KT 10SM OVC009 16/14 A3032 RMK AO2 CIG 005V011
                 T01560144 $ =
2017-10-23 00:51 METAR KILG 230451Z AUTO 06003KT 10SM OVC010 15/14 A3033 RMK AO2 SLP271 T01500139
                 402330078 $ =
2017-10-23 00:32 METAR KILG 230432Z AUTO 00000KT 10SM BKN010 14/14 A3033 RMK AO2 CIG 008V013
                 T01440139 $ =
2017-10-23 00:21 METAR KILG 230421Z AUTO 00000KT 10SM BKN009 14/14 A3034 RMK AO2 T01440139 $ =
2017-10-23 00:09 METAR KILG 230409Z AUTO 10003KT 10SM BKN010 15/14 A3034 RMK AO2 T01500139 $ =
2017-10-22 23:51 METAR KILG 230351Z AUTO 00000KT 10SM CLR 15/14 A3035 RMK AO2 SLP277 T01500139 $
                 =
2017-10-22 22:51 METAR KILG 230251Z AUTO 14004KT 10SM SCT009 16/14 A3036 RMK AO2 SLP279 T01560139
                 58002 $ =
2017-10-22 22:48 METAR KILG 230248Z AUTO 14004KT 10SM SCT009 16/14 A3035 RMK AO2 $ =
2017-10-22 22:41 METAR KILG 230241Z AUTO 13005KT 10SM BKN009 16/14 A3035 RMK AO2 T01560139 $ =
2017-10-22 22:32 METAR KILG 230232Z AUTO 14005KT 10SM SCT009 16/14 A3036 RMK AO2 T01560139 $ =
2017-10-22 21:51 METAR KILG 230151Z AUTO 14006KT 10SM FEW010 16/13 A3037 RMK AO2 SLP283 T01560133
                 $ =
2017-10-22 20:51 METAR KILG 230051Z AUTO 14004KT 10SM CLR 16/13 A3036 RMK AO2 SLP280 T01610128 $
                 =
2017-10-22 19:51 METAR KILG 222351Z 14006KT 10SM CLR 17/13 A3034 RMK AO2 SLP273 T01720133 10233
                 20172 55000 $ =
2017-10-22 18:51 METAR KILG 222251Z 15006KT 10SM CLR 18/13 A3033 RMK AO2 SLP270 T01780133 $ =
2017-10-22 17:51 METAR KILG 222151Z 16007KT 10SM CLR 20/13 A3034 RMK AO2 SLP272 T02000128 $ =
2017-10-22 16:51 METAR KILG 222051Z 17009KT 10SM CLR 22/10 A3034 RMK AO2 SLP273 T02170100 58011 $
                 =
2017-10-22 15:51 METAR KILG 221951Z 18011KT 10SM CLR 23/09 A3035 RMK AO2 SLP279 T02280094 $ =
2017-10-22 14:51 METAR KILG 221851Z 17011KT 10SM CLR 23/08 A3036 RMK AO2 SLP282 T02280083 $ =
2017-10-22 13:51 METAR KILG 221751Z 17008KT 10SM CLR 23/10 A3037 RMK AO2 SLP284 T02280100 10228
                 20089 58015 =

Support USWX by starting your Amazon purchase here.